Time,TemperatureF,DewpointF,PressureIn,WindDirection,WindDirectionDegrees,WindSpeedMPH,WindSpeedGustMPH,Humidity,HourlyPrecipIn,Conditions,Clouds,dailyrainin,SoftwareType,DateUTC
2013-07-23 00:00:00,83.4,70.4,29.85,SSE,163,4.0,10.0,65,0.00,,,0.00,Wunderground v.1.15,2013-07-23 05:00:00,
2013-07-23 00:10:00,83.2,70.7,29.85,SSE,157,6.0,11.0,66,0.00,,,0.00,Wunderground v.1.15,2013-07-23 05:10:00,
2013-07-23 00:20:00,83.0,70.5,29.85,SSE,159,7.0,7.0,66,0.00,,,0.00,Wunderground v.1.15,2013-07-23 05:20:00,
2013-07-23 00:30:00,82.7,70.6,29.85,SSE,158,6.0,10.0,67,0.00,,,0.00,Wunderground v.1.15,2013-07-23 05:30:00,
2013-07-23 00:40:00,82.5,71.3,29.85,SSE,161,5.0,10.0,69,0.00,,,0.00,Wunderground v.1.15,2013-07-23 05:40:00,
2013-07-23 00:50:00,82.6,71.4,29.85,SSE,157,7.0,7.0,69,0.00,,,0.00,Wunderground v.1.15,2013-07-23 05:50:00,
2013-07-23 01:00:00,82.2,71.4,29.85,SSE,157,5.0,10.0,70,0.00,,,0.00,Wunderground v.1.15,2013-07-23 06:00:00,
2013-07-23 01:10:00,82.1,71.3,29.86,SSE,155,7.0,7.0,70,0.00,,,0.00,Wunderground v.1.15,2013-07-23 06:10:00,
2013-07-23 01:20:00,81.7,71.8,29.85,SSE,156,6.0,10.0,72,0.00,,,0.00,Wunderground v.1.15,2013-07-23 06:20:00,
2013-07-23 01:30:00,81.4,71.9,29.85,SSE,162,4.0,10.0,73,0.00,,,0.00,Wunderground v.1.15,2013-07-23 06:30:00,
2013-07-23 01:40:00,81.3,72.2,29.85,SSE,163,6.0,6.0,74,0.00,,,0.00,Wunderground v.1.15,2013-07-23 06:40:00,
2013-07-23 01:50:00,81.1,72.0,29.85,SSE,161,5.0,10.0,74,0.00,,,0.00,Wunderground v.1.15,2013-07-23 06:50:00,
2013-07-23 02:00:00,80.9,72.2,29.85,SSE,161,3.0,10.0,75,0.00,,,0.00,Wunderground v.1.15,2013-07-23 07:00:00,
2013-07-23 02:10:00,80.7,72.4,29.85,SSE,161,2.0,2.0,76,0.00,,,0.00,Wunderground v.1.15,2013-07-23 07:10:00,
2013-07-23 02:20:00,80.5,72.6,29.85,SSE,163,2.0,2.0,77,0.00,,,0.00,Wunderground v.1.15,2013-07-23 07:20:00,
2013-07-23 02:30:00,80.3,72.8,29.85,SSE,161,2.0,10.0,78,0.00,,,0.00,Wunderground v.1.15,2013-07-23 07:30:00,
2013-07-23 02:40:00,80.2,73.1,29.85,SSE,164,3.0,10.0,79,0.00,,,0.00,Wunderground v.1.15,2013-07-23 07:40:00,
2013-07-23 02:50:00,80.2,73.1,29.85,SSE,164,5.0,5.0,79,0.00,,,0.00,Wunderground v.1.15,2013-07-23 07:50:00,
2013-07-23 03:00:00,80.0,73.3,29.85,SSE,168,5.0,5.0,80,0.00,,,0.00,Wunderground v.1.15,2013-07-23 08:00:00,
2013-07-23 03:10:00,79.8,73.1,29.84,South,170,5.0,10.0,80,0.00,,,0.00,Wunderground v.1.15,2013-07-23 08:10:00,
2013-07-23 03:20:00,79.7,73.3,29.85,South,170,3.0,10.0,81,0.00,,,0.00,Wunderground v.1.15,2013-07-23 08:20:00,
2013-07-23 03:30:00,79.5,73.2,29.85,SSE,165,4.0,10.0,81,0.00,,,0.00,Wunderground v.1.15,2013-07-23 08:30:00,
2013-07-23 03:40:00,79.3,73.3,29.85,SSE,167,3.0,3.0,82,0.00,,,0.00,Wunderground v.1.15,2013-07-23 08:40:00,
2013-07-23 03:50:00,79.0,73.4,29.85,SSE,168,2.0,10.0,83,0.00,,,0.00,Wunderground v.1.15,2013-07-23 08:50:00,
2013-07-23 04:00:00,78.9,73.3,29.85,South,169,3.0,3.0,83,0.00,,,0.00,Wunderground v.1.15,2013-07-23 09:00:00,
2013-07-23 04:10:00,78.8,73.6,29.85,South,169,3.0,3.0,84,0.00,,,0.00,Wunderground v.1.15,2013-07-23 09:10:00,
2013-07-23 04:20:00,78.7,73.5,29.85,SSE,167,3.0,3.0,84,0.00,,,0.00,Wunderground v.1.15,2013-07-23 09:20:00,
2013-07-23 04:30:00,78.5,73.3,29.86,SSE,166,1.0,10.0,84,0.00,,,0.00,Wunderground v.1.15,2013-07-23 09:30:00,
2013-07-23 04:40:00,78.6,73.4,29.86,SSE,166,2.0,2.0,84,0.00,,,0.00,Wunderground v.1.15,2013-07-23 09:40:00,
2013-07-23 04:50:00,78.5,73.6,29.86,SSE,166,1.0,1.0,85,0.00,,,0.00,Wunderground v.1.15,2013-07-23 09:50:00,
2013-07-23 05:00:00,78.3,73.4,29.86,SSE,166,0.0,10.0,85,0.00,,,0.00,Wunderground v.1.15,2013-07-23 10:00:00,
2013-07-23 05:10:00,78.2,73.3,29.86,SSE,166,1.0,1.0,85,0.00,,,0.00,Wunderground v.1.15,2013-07-23 10:10:00,
2013-07-23 05:20:00,78.0,73.5,29.85,SSE,166,1.0,1.0,86,0.00,,,0.00,Wunderground v.1.15,2013-07-23 10:20:00,
2013-07-23 05:30:00,78.0,73.5,29.86,SSE,166,0.0,10.0,86,0.00,,,0.00,Wunderground v.1.15,2013-07-23 10:30:00,
2013-07-23 05:40:00,77.9,73.4,29.86,SSE,166,0.0,10.0,86,0.00,,,0.00,Wunderground v.1.15,2013-07-23 10:40:00,
2013-07-23 05:50:00,77.8,73.6,29.86,SSE,166,0.0,10.0,87,0.00,,,0.00,Wunderground v.1.15,2013-07-23 10:50:00,
2013-07-23 06:00:00,77.9,73.7,29.86,SSE,166,0.0,10.0,87,0.00,,,0.00,Wunderground v.1.15,2013-07-23 11:00:00,
2013-07-23 06:10:00,78.1,73.9,29.86,SSE,166,1.0,10.0,87,0.00,,,0.00,Wunderground v.1.15,2013-07-23 11:10:00,
2013-07-23 06:20:00,78.4,73.9,29.87,SSE,166,3.0,3.0,86,0.00,,,0.00,Wunderground v.1.15,2013-07-23 11:20:00,
2013-07-23 06:30:00,78.6,74.1,29.87,SSE,166,1.0,1.0,86,0.00,,,0.00,Wunderground v.1.15,2013-07-23 11:30:00,
2013-07-23 06:40:00,78.7,73.8,29.86,SSE,167,2.0,10.0,85,0.00,,,0.00,Wunderground v.1.15,2013-07-23 11:40:00,
2013-07-23 06:50:00,78.8,73.9,29.86,SSE,160,6.0,6.0,85,0.00,,,0.00,Wunderground v.1.15,2013-07-23 11:50:00,
2013-07-23 07:00:00,78.7,73.8,29.86,SSE,159,6.0,10.0,85,0.00,,,0.00,Wunderground v.1.15,2013-07-23 12:00:00,
2013-07-23 07:10:00,78.5,73.6,29.87,SSE,159,4.0,10.0,85,0.00,,,0.00,Wunderground v.1.15,2013-07-23 12:10:00,
2013-07-23 07:20:00,78.4,73.9,29.87,SSE,159,3.0,3.0,86,0.00,,,0.00,Wunderground v.1.15,2013-07-23 12:20:00,
2013-07-23 07:30:00,78.4,73.9,29.87,South,169,1.0,1.0,86,0.00,,,0.00,Wunderground v.1.15,2013-07-23 12:30:00,
2013-07-23 07:40:00,78.7,73.8,29.87,South,169,1.0,1.0,85,0.00,,,0.00,Wunderground v.1.15,2013-07-23 12:40:00,
2013-07-23 07:50:00,79.1,73.8,29.87,South,169,3.0,10.0,84,0.00,,,0.00,Wunderground v.1.15,2013-07-23 12:50:00,
2013-07-23 08:00:00,79.5,73.9,29.87,SSE,167,3.0,3.0,83,0.00,,,0.00,Wunderground v.1.15,2013-07-23 13:00:00,
2013-07-23 08:10:00,79.7,74.1,29.87,SSE,155,1.0,10.0,83,0.00,,,0.00,Wunderground v.1.15,2013-07-23 13:10:00,
2013-07-23 08:20:00,79.9,73.9,29.87,SSE,155,1.0,10.0,82,0.00,,,0.00,Wunderground v.1.15,2013-07-23 13:20:00,
2013-07-23 08:30:00,80.0,74.0,29.87,South,173,3.0,10.0,82,0.00,,,0.00,Wunderground v.1.15,2013-07-23 13:30:00,
2013-07-23 08:40:00,80.3,74.3,29.88,South,171,2.0,2.0,82,0.00,,,0.00,Wunderground v.1.15,2013-07-23 13:40:00,
2013-07-23 08:50:00,80.7,74.0,29.88,South,169,3.0,10.0,80,0.00,,,0.00,Wunderground v.1.15,2013-07-23 13:50:00,
2013-07-23 09:00:00,81.1,74.3,29.88,South,169,3.0,10.0,80,0.00,,,0.00,Wunderground v.1.15,2013-07-23 14:00:00,
2013-07-23 09:10:00,81.2,74.1,29.88,SSE,165,7.0,7.0,79,0.00,,,0.00,Wunderground v.1.15,2013-07-23 14:10:00,
2013-07-23 09:20:00,81.4,74.3,29.88,South,180,5.0,10.0,79,0.00,,,0.00,Wunderground v.1.15,2013-07-23 14:20:00,
2013-07-23 09:30:00,81.7,74.2,29.88,South,179,5.0,10.0,78,0.00,,,0.00,Wunderground v.1.15,2013-07-23 14:30:00,
2013-07-23 09:40:00,82.1,74.9,29.88,South,172,6.0,6.0,79,0.00,,,0.00,Wunderground v.1.15,2013-07-23 14:40:00,
2013-07-23 09:50:00,82.9,74.6,29.89,South,171,6.0,10.0,76,0.00,,,0.00,Wunderground v.1.15,2013-07-23 14:50:00,
2013-07-23 10:00:00,83.3,74.5,29.88,SSE,165,8.0,14.0,75,0.00,,,0.00,Wunderground v.1.15,2013-07-23 15:00:00,
2013-07-23 10:10:00,83.6,74.4,29.88,SSE,155,9.0,13.0,74,0.00,,,0.00,Wunderground v.1.15,2013-07-23 15:10:00,
2013-07-23 10:20:00,83.7,74.5,29.88,South,175,7.0,7.0,74,0.00,,,0.00,Wunderground v.1.15,2013-07-23 15:20:00,
2013-07-23 10:30:00,84.3,74.3,29.88,SSE,167,4.0,13.0,72,0.00,,,0.00,Wunderground v.1.15,2013-07-23 15:30:00,
2013-07-23 10:40:00,84.8,74.8,29.89,South,180,8.0,10.0,72,0.00,,,0.00,Wunderground v.1.15,2013-07-23 15:40:00,
2013-07-23 10:50:00,84.9,74.0,29.88,SSW,209,6.0,10.0,70,0.00,,,0.00,Wunderground v.1.15,2013-07-23 15:50:00,
2013-07-23 11:00:00,85.1,74.6,29.88,South,181,6.0,10.0,71,0.00,,,0.00,Wunderground v.1.15,2013-07-23 16:00:00,
2013-07-23 11:10:00,85.6,75.1,29.88,South,180,8.0,10.0,71,0.00,,,0.00,Wunderground v.1.15,2013-07-23 16:10:00,
2013-07-23 11:20:00,86.5,76.0,29.88,South,188,9.0,9.0,71,0.00,,,0.00,Wunderground v.1.15,2013-07-23 16:20:00,
2013-07-23 11:30:00,86.9,75.5,29.88,SSW,198,5.0,10.0,69,0.00,,,0.00,Wunderground v.1.15,2013-07-23 16:30:00,
2013-07-23 11:40:00,87.3,75.0,29.88,South,171,8.0,10.0,67,0.00,,,0.00,Wunderground v.1.15,2013-07-23 16:40:00,
2013-07-23 11:50:00,87.8,75.0,29.88,SSE,163,8.0,10.0,66,0.00,,,0.00,Wunderground v.1.15,2013-07-23 16:50:00,
2013-07-23 12:00:00,87.7,74.9,29.88,SSW,203,8.0,8.0,66,0.00,,,0.00,Wunderground v.1.15,2013-07-23 17:00:00,
2013-07-23 12:10:00,88.4,75.1,29.88,South,178,6.0,12.0,65,0.00,,,0.00,Wunderground v.1.15,2013-07-23 17:10:00,
2013-07-23 12:20:00,88.3,75.0,29.88,South,181,7.0,11.0,65,0.00,,,0.00,Wunderground v.1.15,2013-07-23 17:20:00,
2013-07-23 12:30:00,88.9,74.7,29.87,SSW,195,10.0,10.0,63,0.00,,,0.00,Wunderground v.1.15,2013-07-23 17:30:00,
2013-07-23 12:40:00,89.3,75.5,29.87,SW,221,5.0,10.0,64,0.00,,,0.00,Wunderground v.1.15,2013-07-23 17:40:00,
2013-07-23 12:50:00,89.7,74.9,29.87,SSE,161,7.0,10.0,62,0.00,,,0.00,Wunderground v.1.15,2013-07-23 17:50:00,
2013-07-23 13:00:00,90.1,73.8,29.87,South,179,10.0,10.0,59,0.00,,,0.00,Wunderground v.1.15,2013-07-23 18:00:00,
2013-07-23 13:20:00,90.4,75.1,29.86,South,171,8.0,12.0,61,0.00,,,0.00,Wunderground v.1.15,2013-07-23 18:20:00,
2013-07-23 13:30:00,90.9,75.1,29.86,SSE,157,7.0,7.0,60,0.00,,,0.00,Wunderground v.1.15,2013-07-23 18:30:00,
2013-07-23 13:40:00,90.9,75.1,29.86,SSE,160,9.0,10.0,60,0.00,,,0.00,Wunderground v.1.15,2013-07-23 18:40:00,
2013-07-23 13:50:00,91.0,74.2,29.85,South,188,7.0,7.0,58,0.00,,,0.00,Wunderground v.1.15,2013-07-23 18:50:00,
2013-07-23 14:00:00,91.6,74.7,29.85,SSW,198,7.0,7.0,58,0.00,,,0.00,Wunderground v.1.15,2013-07-23 19:00:00,
2013-07-23 14:10:00,91.6,74.2,29.85,South,186,9.0,12.0,57,0.00,,,0.00,Wunderground v.1.15,2013-07-23 19:10:00,
2013-07-23 14:20:00,91.5,74.1,29.84,South,180,12.0,12.0,57,0.00,,,0.00,Wunderground v.1.15,2013-07-23 19:20:00,
2013-07-23 14:30:00,91.8,74.4,29.84,SSE,164,11.0,11.0,57,0.00,,,0.00,Wunderground v.1.15,2013-07-23 19:30:00,
2013-07-23 14:40:00,92.0,73.0,29.84,South,179,11.0,14.0,54,0.00,,,0.00,Wunderground v.1.15,2013-07-23 19:40:00,
2013-07-23 15:00:00,93.1,73.4,29.83,SSE,157,6.0,11.0,53,0.00,,,0.00,Wunderground v.1.15,2013-07-23 20:00:00,
2013-07-23 15:10:00,92.9,72.7,29.83,South,173,9.0,13.0,52,0.00,,,0.00,Wunderground v.1.15,2013-07-23 20:10:00,
2013-07-23 15:20:00,93.3,71.3,29.83,SSW,208,8.0,8.0,49,0.00,,,0.00,Wunderground v.1.15,2013-07-23 20:20:00,
2013-07-23 15:30:00,93.7,72.3,29.83,SSE,160,7.0,11.0,50,0.00,,,0.00,Wunderground v.1.15,2013-07-23 20:30:00,
2013-07-23 15:40:00,93.5,71.5,29.82,SSE,165,10.0,12.0,49,0.00,,,0.00,Wunderground v.1.15,2013-07-23 20:40:00,
2013-07-23 15:50:00,93.4,71.4,29.82,South,179,8.0,8.0,49,0.00,,,0.00,Wunderground v.1.15,2013-07-23 20:50:00,
2013-07-23 16:10:00,94.6,70.0,29.80,SSW,196,6.0,10.0,45,0.00,,,0.00,Wunderground v.1.15,2013-07-23 21:10:00,
2013-07-23 16:20:00,95.0,69.0,29.80,South,190,7.0,12.0,43,0.00,,,0.00,Wunderground v.1.15,2013-07-23 21:20:00,
2013-07-23 16:40:00,94.9,67.5,29.80,SSW,192,9.0,9.0,41,0.00,,,0.00,Wunderground v.1.15,2013-07-23 21:40:00,
2013-07-23 16:50:00,95.1,69.1,29.79,South,187,6.0,6.0,43,0.00,,,0.00,Wunderground v.1.15,2013-07-23 21:50:00,
2013-07-23 17:00:00,95.5,66.6,29.79,South,174,6.0,6.0,39,0.00,,,0.00,Wunderground v.1.15,2013-07-23 22:00:00,
2013-07-23 17:10:00,95.3,68.6,29.79,SSE,167,6.0,6.0,42,0.00,,,0.00,Wunderground v.1.15,2013-07-23 22:10:00,
2013-07-23 17:30:00,95.8,68.3,29.78,South,174,8.0,10.0,41,0.00,,,0.00,Wunderground v.1.15,2013-07-23 22:30:00,
2013-07-23 17:40:00,95.5,68.1,29.78,SSE,161,7.0,10.0,41,0.00,,,0.00,Wunderground v.1.15,2013-07-23 22:40:00,
2013-07-23 18:00:00,95.4,68.7,29.77,South,169,5.0,10.0,42,0.00,,,0.00,Wunderground v.1.15,2013-07-23 23:00:00,
2013-07-23 18:10:00,95.1,67.7,29.77,South,180,10.0,12.0,41,0.00,,,0.00,Wunderground v.1.15,2013-07-23 23:10:00,
2013-07-23 18:20:00,95.0,67.6,29.77,South,178,8.0,10.0,41,0.00,,,0.00,Wunderground v.1.15,2013-07-23 23:20:00,
2013-07-23 18:50:00,94.7,66.6,29.77,South,175,8.0,8.0,40,0.00,,,0.00,Wunderground v.1.15,2013-07-23 23:50:00,
2013-07-23 19:00:00,94.6,66.5,29.76,South,183,7.0,7.0,40,0.00,,,0.00,Wunderground v.1.15,2013-07-24 00:00:00,
2013-07-23 19:20:00,94.1,66.8,29.76,South,180,6.0,6.0,41,0.00,,,0.00,Wunderground v.1.15,2013-07-24 00:20:00,
2013-07-23 19:50:00,93.0,64.4,29.76,South,181,4.0,10.0,39,0.00,,,0.00,Wunderground v.1.15,2013-07-24 00:50:00,
2013-07-23 20:00:00,92.4,64.6,29.75,South,178,4.0,4.0,40,0.00,,,0.00,Wunderground v.1.15,2013-07-24 01:00:00,
2013-07-23 20:10:00,91.7,64.7,29.75,South,178,1.0,1.0,41,0.00,,,0.00,Wunderground v.1.15,2013-07-24 01:10:00,
2013-07-23 20:20:00,91.0,64.7,29.75,South,178,0.0,10.0,42,0.00,,,0.00,Wunderground v.1.15,2013-07-24 01:20:00,
2013-07-23 20:30:00,90.3,64.8,29.75,South,178,0.0,10.0,43,0.00,,,0.00,Wunderground v.1.15,2013-07-24 01:30:00,
2013-07-23 20:40:00,89.6,64.8,29.75,South,178,0.0,10.0,44,0.00,,,0.00,Wunderground v.1.15,2013-07-24 01:40:00,
2013-07-23 20:50:00,89.0,64.9,29.75,South,178,0.0,10.0,45,0.00,,,0.00,Wunderground v.1.15,2013-07-24 01:50:00,
2013-07-23 21:00:00,88.2,64.8,29.75,South,178,0.0,10.0,46,0.00,,,0.00,Wunderground v.1.15,2013-07-24 02:00:00,
2013-07-23 21:20:00,86.7,64.7,29.75,South,178,0.0,10.0,48,0.00,,,0.00,Wunderground v.1.15,2013-07-24 02:20:00,
2013-07-23 21:30:00,86.2,64.8,29.76,South,178,0.0,10.0,49,0.00,,,0.00,Wunderground v.1.15,2013-07-24 02:30:00,
2013-07-23 21:40:00,85.6,64.2,29.76,South,178,0.0,10.0,49,0.00,,,0.00,Wunderground v.1.15,2013-07-24 02:40:00,
2013-07-23 21:50:00,85.1,64.9,29.77,South,178,0.0,10.0,51,0.00,,,0.00,Wunderground v.1.15,2013-07-24 02:50:00,
2013-07-23 22:00:00,84.6,65.6,29.77,South,178,0.0,10.0,53,0.00,,,0.00,Wunderground v.1.15,2013-07-24 03:00:00,
2013-07-23 22:10:00,84.2,65.2,29.77,South,178,0.0,10.0,53,0.00,,,0.00,Wunderground v.1.15,2013-07-24 03:10:00,
2013-07-23 22:20:00,83.7,64.8,29.78,South,178,0.0,10.0,53,0.00,,,0.00,Wunderground v.1.15,2013-07-24 03:20:00,
2013-07-23 22:30:00,83.4,65.5,29.78,South,178,0.0,10.0,55,0.00,,,0.00,Wunderground v.1.15,2013-07-24 03:30:00,
2013-07-23 22:40:00,83.2,65.4,29.78,South,178,0.0,10.0,55,0.00,,,0.00,Wunderground v.1.15,2013-07-24 03:40:00,
2013-07-23 22:50:00,82.9,64.5,29.78,South,178,0.0,10.0,54,0.00,,,0.00,Wunderground v.1.15,2013-07-24 03:50:00,
2013-07-23 23:10:00,82.4,65.1,29.79,South,178,0.0,10.0,56,0.00,,,0.00,Wunderground v.1.15,2013-07-24 04:10:00,
2013-07-23 23:20:00,82.1,65.4,29.79,South,178,0.0,10.0,57,0.00,,,0.00,Wunderground v.1.15,2013-07-24 04:20:00,
2013-07-23 23:30:00,81.8,64.6,29.79,South,178,0.0,10.0,56,0.00,,,0.00,Wunderground v.1.15,2013-07-24 04:30:00,
2013-07-23 23:40:00,81.5,64.8,29.80,South,178,0.0,10.0,57,0.00,,,0.00,Wunderground v.1.15,2013-07-24 04:40:00,
2013-07-23 23:50:00,81.1,64.9,29.80,South,178,0.0,10.0,58,0.00,,,0.00,Wunderground v.1.15,2013-07-24 04:50:00,